Columbia City, IN

8:37 PM EDT on May 28, 2017 (GMT -0400)
Whitley County Indiana | | Change Station
Active Advisory: Flood Warning

Elev 873 ft 41.16 °N, 85.49 °W | Updated 7 minutes ago

Mostly Cloudy
Mostly Cloudy
66.8 °F
Feels Like 66.8 °F
N
2.0
Wind Variable Wind from WSW
Gusts 6.0 mph

Today
High -- | Low -- °F
--% Chance of Precip.
Yesterday
High -- | Low -- °F
Precip. -- in
Pressure 29.75 in
Visibility 10.0 miles
Clouds Clear
Dew Point 64 °F
Humidity 90%
Rainfall 0.05 in
Snow Depth Not available.
6:13 AM 9:05 PM
Waxing Crescent, 15% visible
METAR KASW 290015Z AUTO 32015G20KT 10SM CLR 21/13 A2975 RMK AO2
Pressure 29.75 in
Visibility 10.0 miles
Clouds Clear
Dew Point 64 °F
Humidity 90%
Rainfall 0.05 in
Snow Depth Not available.
6:13 AM 9:05 PM
Waxing Crescent, 15% visible
METAR KASW 290015Z AUTO 32015G20KT 10SM CLR 21/13 A2975 RMK AO2

Get Your Daily Forecast Email!

Thanks for signing up!

Be on the lookout for a verification email in your inbox.

You'll start receiving severe weather alerts in your inbox..

×

10-Day Weather Forecast

Almanac

Astronomy

May. 28, 2017 Rise Set
Actual Time
Civil Twilight
Nautical Twilight
Astronomical Twilight
Moon
Length of Visible Light
Length of Day
Tomorrow will be .
, % of the Moon is Illuminated

Today's Extremes

State Highs State Lows

Community

WunderPhotos

Category 6

Welcome to Category 6. This is the collective home for Weather Underground's featured writeups by Dr. Jeff Masters (right), Bob Henson (left), Chris Burt, and other regular contributors.

Nearby

Air Quality

  Air Quality AQ Index Pollutant
Not available.

Snow Depth

Station Depth Elevation

Earthquake Activity

City Distance Mag. Time & Date
Minimum magnitude displayed is 2.5.

Coastal Water Temperatures

Place Temperature

Stations

Nearby Weather Stations

Station Location Temp. Windchill Dew Point Humidity Wind Precip. Elev Updated Type
                   

Watches & Warnings

Flood Warning
Issued: 12:19 PM EDT May. 28, 2017 – National Weather Service

the Flood Warning has been extended for
the Eel River at North Manchester
* until late Monday night.
* At 11 am Sunday the stage was 10.5 feet and steady.
* Minor flooding is occurring and minor flooding is forecast.
* Flood stage is 9.0 feet.
* Forecast... the river will fall below the 9.0 foot flood stage
around 3 am Monday may 29.
* At 10.0 feet... flood waters near lumber company and trailer court
on South Mill street.
* This crest compares to a previous crest of 10.9 feet which occurred
on may 11 2016.


Lat... Lon 4076 8635 4097 8592 4102 8577 4099 8577
      4087 8599 4072 8631